Observations for SIOUX FALLS FOSS, SD (FSD)

KFSD 242056Z 03014KT 10SM FEW020 OVC055 09/05 A3024 RMK AO2 SLP249 60000 T00940050 52005
KFSD 241956Z 04011G19KT 10SM OVC060 09/04 A3024 RMK AO2 RAB15E20 SLP249 P0000 T00940044 
KFSD 241856Z 04016KT 10SM OVC065 08/04 A3023 RMK AO2 RAE52 SLP245 P0000 T00780039   
KFSD 241756Z 04016KT 10SM -RA OVC065 08/04 A3023 RMK AO2 PK WND 03027/1722 SLP245 P0000 60000 T00830039 10106 20078 51008   
KFSD 241656Z 02017G25KT 10SM -RA FEW041 BKN070 OVC095 09/03 A3023 RMK AO2 PK WND 02026/1643 RAB28 SLP244 P0000 T00890033
KFSD 241556Z 04017KT 10SM OVC090 10/03 A3021 RMK AO2 SLP236 T01000033   
KFSD 241456Z 02011KT 10SM OVC090 10/04 A3021 RMK AO2 SLP234 T01000044 51022 
KFSD 241356Z 02006KT 10SM OVC095 09/05 A3018 RMK AO2 SLP224 T00890050   
KFSD 241256Z 00000KT 10SM OVC090 09/05 A3017 RMK AO2 SLP218 T00890050   
KFSD 241156Z 03003KT 10SM OVC085 08/04 A3014 RMK AO2 SLP208 T00830044 10089 20061 53002 
KFSD 241056Z 03003KT 10SM BKN090 OVC110 08/04 A3013 RMK AO2 SLP204 T00780044
KFSD 240956Z 34003KT 10SM BKN085 BKN110 OVC250 07/04 A3013 RMK AO2 SLP205 T00720039 
KFSD 240856Z AUTO 04005KT 10SM SCT085 OVC100 08/05 A3013 RMK AO2 SLP204 T00830050 58001 
KFSD 240756Z AUTO 00000KT 10SM BKN085 OVC110 08/05 A3014 RMK AO2 SLP209 T00830050   
KFSD 240656Z AUTO 00000KT 10SM OVC100 09/04 A3014 RMK AO2 SLP207 T00890044  
KFSD 240556Z AUTO 05003KT 10SM FEW095 08/04 A3013 RMK AO2 SLP207 T00780039 10189 20078 402110006 50000  
KFSD 240456Z 00000KT 10SM BKN090 09/04 A3014 RMK AO2 SLP208 LAST T00890039  
KFSD 240356Z 11007KT 10SM FEW070 SCT250 11/04 A3014 RMK AO2 SLP210 T01110044
KFSD 240256Z 10007KT 10SM SCT250 12/05 A3014 RMK AO2 SLP208 T01220050 53012 
KFSD 240156Z 09007KT 10SM FEW080 BKN250 14/05 A3012 RMK AO2 SLP203 T01390050
KFSD 240056Z 10007KT 10SM FEW080 BKN250 16/04 A3010 RMK AO2 SLP197 T01610039
KFSD 232356Z 10008KT 10SM FEW080 SCT250 19/03 A3010 RMK AO2 SLP197 T01890028 10211 20189 56010  
KFSD 232256Z 08005KT 10SM FEW080 FEW250 20/02 A3010 RMK AO2 SLP198 T02000017
KFSD 232156Z VRB05KT 10SM FEW070 FEW250 21/01 A3011 RMK AO2 SLP202 T02060011
KFSD 232056Z 05003KT 10SM FEW080 FEW250 21/01 A3013 RMK AO2 SLP207 T02060006 56017